createdAt,value
2023-05-14T00:02:00.325Z,96173.59
2023-05-14T00:06:12.841Z,96179.00
2023-05-14T00:10:25.575Z,96176.66
2023-05-14T00:14:48.217Z,96174.84
2023-05-14T00:19:00.771Z,96164.28
2023-05-14T00:23:13.472Z,96166.47
2023-05-14T00:27:25.908Z,96158.03
2023-05-14T00:31:38.362Z,96166.78
2023-05-14T00:35:52.534Z,96163.41
2023-05-14T00:40:07.542Z,96156.66
2023-05-14T00:44:20.022Z,96170.44
2023-05-14T00:48:32.558Z,96164.34
2023-05-14T00:52:45.092Z,96166.50
2023-05-14T00:56:57.900Z,96163.75
2023-05-14T01:01:10.704Z,96172.31
2023-05-14T01:05:26.839Z,96171.56
2023-05-14T01:10:07.014Z,96169.56
2023-05-14T01:14:34.203Z,96168.66
2023-05-14T01:18:50.122Z,96164.81
2023-05-14T01:23:04.020Z,96163.28
2023-05-14T01:27:32.195Z,96155.91
2023-05-14T01:31:48.156Z,96151.91
2023-05-14T01:36:01.133Z,96142.13
2023-05-14T01:40:25.060Z,96141.03
2023-05-14T01:44:37.799Z,96145.59
2023-05-14T01:48:50.842Z,96142.41
2023-05-14T01:53:03.310Z,96141.34
2023-05-14T01:57:15.734Z,96142.25
2023-05-14T02:01:28.662Z,96132.13
2023-05-14T02:05:41.214Z,96138.28
2023-05-14T02:09:53.653Z,96126.59
2023-05-14T02:14:06.112Z,96127.38
2023-05-14T02:18:18.647Z,96128.75
2023-05-14T02:22:31.183Z,96126.59
2023-05-14T02:26:43.612Z,96140.28
2023-05-14T02:31:02.436Z,96123.25
2023-05-14T02:35:14.903Z,96122.44
2023-05-14T02:39:27.518Z,96121.06
2023-05-14T02:43:45.056Z,96113.28
2023-05-14T02:47:57.569Z,96121.53
2023-05-14T02:52:10.085Z,96128.00
2023-05-14T02:56:23.365Z,96120.75
2023-05-14T03:00:35.830Z,96110.22
2023-05-14T03:04:49.055Z,96118.66
2023-05-14T03:09:01.530Z,96110.69
2023-05-14T03:13:18.585Z,96109.63
2023-05-14T03:17:31.169Z,96109.31
2023-05-14T03:21:53.763Z,96098.69
2023-05-14T03:26:07.736Z,96097.31
2023-05-14T03:30:20.257Z,96095.63
2023-05-14T03:34:32.886Z,96091.94
2023-05-14T03:38:45.298Z,96091.94
2023-05-14T03:43:07.765Z,96095.63
2023-05-14T03:47:20.197Z,96084.72
2023-05-14T03:51:42.665Z,96077.53
2023-05-14T03:55:56.233Z,96091.03
2023-05-14T04:00:09.669Z,96084.88
2023-05-14T04:04:22.161Z,96084.06
2023-05-14T04:08:34.674Z,96093.13
2023-05-14T04:12:47.181Z,96069.94
2023-05-14T04:17:00.339Z,96092.63
2023-05-14T04:21:13.320Z,96097.53
2023-05-14T04:25:28.098Z,96090.59
2023-05-14T04:29:40.541Z,96091.41
2023-05-14T04:33:53.051Z,96093.03
2023-05-14T04:38:05.610Z,96103.78
2023-05-14T04:42:18.038Z,96105.97
2023-05-14T04:46:30.594Z,96085.59
2023-05-14T04:50:53.074Z,96100.81
2023-05-14T04:55:06.450Z,96099.09
2023-05-14T04:59:18.980Z,96097.66
2023-05-14T05:03:32.058Z,96098.44
2023-05-14T05:07:44.585Z,96098.84
2023-05-14T05:11:57.138Z,96101.66
2023-05-14T05:16:09.728Z,96104.88
2023-05-14T05:20:24.091Z,96101.50
2023-05-14T05:24:37.160Z,96092.25
2023-05-14T05:28:50.225Z,96089.69
2023-05-14T05:33:02.914Z,96106.34
2023-05-14T05:37:15.748Z,96098.84
2023-05-14T05:41:28.216Z,96110.94
2023-05-14T05:45:40.688Z,96094.91
2023-05-14T05:49:54.258Z,96099.03
2023-05-14T05:54:16.753Z,96105.94
2023-05-14T05:58:29.963Z,96101.88
2023-05-14T06:02:47.615Z,96103.94
2023-05-14T06:07:00.121Z,96096.63
2023-05-14T06:11:12.749Z,96098.41
2023-05-14T06:15:25.214Z,96101.28
2023-05-14T06:19:38.137Z,96098.59
2023-05-14T06:23:50.638Z,96094.56
2023-05-14T06:28:03.141Z,96089.25
2023-05-14T06:32:18.724Z,96085.34
2023-05-14T06:36:31.234Z,96097.19
2023-05-14T06:40:43.720Z,96095.47
2023-05-14T06:44:56.820Z,96097.94
2023-05-14T06:49:09.337Z,96097.69
2023-05-14T06:53:21.929Z,96092.78
2023-05-14T06:57:35.447Z,96102.47
2023-05-14T07:01:57.181Z,96099.47
2023-05-14T07:06:11.241Z,96100.88
2023-05-14T07:10:25.936Z,96094.00
2023-05-14T07:14:39.269Z,96086.00
2023-05-14T07:18:51.974Z,96068.88
2023-05-14T07:23:04.585Z,96043.47
2023-05-14T07:27:17.969Z,96071.41
2023-05-14T07:31:30.623Z,96078.78
2023-05-14T07:35:43.570Z,96066.59
2023-05-14T07:39:56.922Z,96065.59
2023-05-14T07:44:09.791Z,96070.84
2023-05-14T07:48:22.392Z,96062.03
2023-05-14T07:52:34.973Z,96068.34
2023-05-14T07:56:47.398Z,96059.00
2023-05-14T08:01:09.921Z,96054.53
2023-05-14T08:05:22.437Z,96058.06
2023-05-14T08:09:35.285Z,96054.28
2023-05-14T08:13:47.772Z,96052.06
2023-05-14T08:18:04.155Z,96039.22
2023-05-14T08:22:16.661Z,96051.84
2023-05-14T08:26:29.352Z,96057.59
2023-05-14T08:30:41.889Z,96066.31
2023-05-14T08:34:54.396Z,96069.19
2023-05-14T08:39:08.380Z,96058.13
2023-05-14T08:43:27.147Z,96060.34
2023-05-14T08:47:39.797Z,96053.69
2023-05-14T08:51:52.360Z,96053.84
2023-05-14T08:56:07.822Z,96050.03
2023-05-14T09:00:20.868Z,96047.69
2023-05-14T09:04:33.645Z,96046.81
2023-05-14T09:08:47.269Z,96040.31
2023-05-14T09:12:59.855Z,96040.84
2023-05-14T09:17:13.476Z,96045.81
2023-05-14T09:21:26.114Z,96038.59
2023-05-14T09:25:38.568Z,96046.72
2023-05-14T09:29:50.989Z,96032.44
2023-05-14T09:34:03.471Z,96028.53
2023-05-14T09:38:16.999Z,96045.03
2023-05-14T09:42:29.395Z,96041.91
2023-05-14T09:46:53.353Z,96041.75
2023-05-14T09:51:06.710Z,96031.78
2023-05-14T09:55:19.837Z,96034.19
2023-05-14T09:59:42.731Z,96036.41
2023-05-14T10:03:56.329Z,96031.03
2023-05-14T10:08:57.175Z,96037.44
2023-05-14T10:13:24.292Z,96033.66
2023-05-14T10:17:41.885Z,96036.78
2023-05-14T10:21:58.030Z,96033.66
2023-05-14T10:26:11.619Z,96023.25
2023-05-14T10:30:24.735Z,96032.84
2023-05-14T10:34:47.481Z,96036.53
2023-05-14T10:39:00.121Z,96039.81
2023-05-14T10:43:12.733Z,96027.59
2023-05-14T10:47:27.098Z,96040.59
2023-05-14T10:51:40.460Z,96041.72
2023-05-14T10:55:56.438Z,96037.06
2023-05-14T11:00:09.794Z,96036.22
2023-05-14T11:04:25.691Z,96017.66
2023-05-14T11:08:39.628Z,96025.72
2023-05-14T11:12:53.357Z,96025.69
2023-05-14T11:17:06.547Z,96031.03
2023-05-14T11:21:19.048Z,96023.41
2023-05-14T11:25:31.966Z,96021.31
2023-05-14T11:29:48.915Z,96010.28
2023-05-14T11:34:01.874Z,96007.16
2023-05-14T11:38:22.034Z,95998.19
2023-05-14T11:42:44.534Z,95995.53
2023-05-14T11:46:58.401Z,95990.53
2023-05-14T11:51:10.935Z,95987.56
2023-05-14T11:55:23.412Z,95969.47
2023-05-14T11:59:36.056Z,95961.00
2023-05-14T12:03:48.707Z,95954.94
2023-05-14T12:08:01.280Z,95953.88
2023-05-14T12:12:13.908Z,95941.44
2023-05-14T12:16:36.236Z,95943.28
2023-05-14T12:20:52.130Z,95938.19
2023-05-14T12:25:05.029Z,95940.78
2023-05-14T12:29:23.645Z,95931.91
2023-05-14T12:33:36.554Z,95930.63
2023-05-14T12:37:49.056Z,95926.41
2023-05-14T12:42:02.407Z,95919.81
2023-05-14T12:46:14.860Z,95915.16
2023-05-14T12:50:27.618Z,95909.22
2023-05-14T12:54:42.990Z,95895.53
2023-05-14T12:59:05.871Z,95899.22
2023-05-14T13:03:18.408Z,95885.94
2023-05-14T13:07:31.349Z,95877.50
2023-05-14T13:11:43.795Z,95861.69
2023-05-14T13:15:56.366Z,95865.81
2023-05-14T13:20:18.807Z,95874.34
2023-05-14T13:24:31.210Z,95849.31
2023-05-14T13:28:44.165Z,95857.66
2023-05-14T13:32:56.711Z,95842.78
2023-05-14T13:37:09.132Z,95831.56
2023-05-14T13:41:22.433Z,95833.34
2023-05-14T13:45:34.904Z,95814.69
2023-05-14T13:49:47.552Z,95814.78
2023-05-14T13:54:00.382Z,95815.00
2023-05-14T13:58:12.841Z,95810.59
2023-05-14T14:02:25.335Z,95814.72
2023-05-14T14:06:37.764Z,95809.31
2023-05-14T14:11:00.204Z,95797.19
2023-05-14T14:15:12.725Z,95794.91
2023-05-14T14:19:25.282Z,95783.88
2023-05-14T14:23:38.341Z,95785.75
2023-05-14T14:27:51.734Z,95767.94
2023-05-14T14:32:04.881Z,95761.19
2023-05-14T14:36:17.355Z,95762.97
2023-05-14T14:40:30.503Z,95756.16
2023-05-14T14:44:45.774Z,95753.31
2023-05-14T14:48:58.230Z,95755.09
2023-05-14T14:53:10.777Z,95751.28
2023-05-14T14:57:23.600Z,95748.63
2023-05-14T15:01:36.446Z,95753.84
2023-05-14T15:05:49.683Z,95753.47
2023-05-14T15:10:02.188Z,95753.63
2023-05-14T15:14:14.632Z,95747.28
2023-05-14T15:18:27.589Z,95739.19
2023-05-14T15:22:40.030Z,95730.47
2023-05-14T15:26:53.563Z,95745.81
2023-05-14T15:31:06.910Z,95761.16
2023-05-14T15:35:19.447Z,95777.97
2023-05-14T15:39:32.327Z,95793.28
2023-05-14T15:43:44.773Z,95815.22
2023-05-14T15:47:57.284Z,95808.25
2023-05-14T15:52:18.759Z,95815.31
2023-05-14T15:56:32.065Z,95813.63
2023-05-14T16:00:44.528Z,95812.50
2023-05-14T16:04:57.169Z,95816.03
2023-05-14T16:09:10.131Z,95819.53
2023-05-14T16:13:22.616Z,95820.25
2023-05-14T16:17:45.170Z,95827.69
2023-05-14T16:21:57.601Z,95840.06
2023-05-14T16:26:10.107Z,95830.00
2023-05-14T16:30:22.792Z,95828.81
2023-05-14T16:34:50.369Z,95830.31
2023-05-14T16:39:08.209Z,95825.53
2023-05-14T16:43:21.076Z,95826.09
2023-05-14T16:47:33.560Z,95826.84
2023-05-14T16:51:56.095Z,95829.94
2023-05-14T16:56:08.560Z,95830.38
2023-05-14T17:00:21.240Z,95825.25
2023-05-14T17:04:34.126Z,95826.03
2023-05-14T17:08:46.631Z,95820.81
2023-05-14T17:12:59.156Z,95825.66
2023-05-14T17:17:11.608Z,95819.38
2023-05-14T17:21:24.054Z,95817.50
2023-05-14T17:25:36.505Z,95820.25
2023-05-14T17:29:51.731Z,95818.47
2023-05-14T17:34:04.151Z,95821.41
2023-05-14T17:38:26.702Z,95829.19
2023-05-14T17:42:39.378Z,95819.81
2023-05-14T17:46:51.891Z,95828.94
2023-05-14T17:51:04.468Z,95832.97
2023-05-14T17:55:18.236Z,95833.78
2023-05-14T17:59:30.678Z,95828.13
2023-05-14T18:03:43.167Z,95840.03
2023-05-14T18:07:56.861Z,95839.78
2023-05-14T18:12:19.326Z,95841.34
2023-05-14T18:16:41.816Z,95842.78
2023-05-14T18:20:54.384Z,95846.16
2023-05-14T18:25:07.975Z,95848.19
2023-05-14T18:29:20.434Z,95837.78
2023-05-14T18:33:35.742Z,95840.63
2023-05-14T18:37:48.295Z,95833.53
2023-05-14T18:42:01.463Z,95842.97
2023-05-14T18:46:14.313Z,95842.28
2023-05-14T18:50:26.913Z,95840.84
2023-05-14T18:54:49.388Z,95850.81
2023-05-14T18:59:01.878Z,95845.28
2023-05-14T19:03:15.127Z,95849.31
2023-05-14T19:07:28.456Z,95856.88
2023-05-14T19:11:40.878Z,95856.03
2023-05-14T19:15:53.375Z,95859.19
2023-05-14T19:20:07.300Z,95860.41
2023-05-14T19:24:29.812Z,95852.22
2023-05-14T19:28:42.471Z,95858.66
2023-05-14T19:33:03.029Z,95867.34
2023-05-14T19:37:15.637Z,95856.56
2023-05-14T19:41:28.544Z,95859.03
2023-05-14T19:45:43.348Z,95860.88
2023-05-14T19:49:55.862Z,95864.59
2023-05-14T19:54:08.471Z,95869.00
2023-05-14T19:58:20.951Z,95860.41
2023-05-14T20:02:34.709Z,95857.72
2023-05-14T20:06:47.926Z,95856.88
2023-05-14T20:11:00.382Z,95859.44
2023-05-14T20:15:13.002Z,95858.00
2023-05-14T20:19:25.485Z,95847.78
2023-05-14T20:23:38.107Z,95851.59
2023-05-14T20:27:50.680Z,95839.03
2023-05-14T20:32:12.003Z,95851.69
2023-05-14T20:36:25.221Z,95857.63
2023-05-14T20:40:37.776Z,95857.63
2023-05-14T20:45:00.207Z,95853.69
2023-05-14T20:49:12.673Z,95859.22
2023-05-14T20:53:26.282Z,95842.44
2023-05-14T20:57:38.804Z,95845.31
2023-05-14T21:01:51.605Z,95829.88
2023-05-14T21:06:04.181Z,95831.69
2023-05-14T21:10:17.075Z,95842.66
2023-05-14T21:14:29.578Z,95844.38
2023-05-14T21:18:42.107Z,95848.09
2023-05-14T21:22:54.581Z,95852.66
2023-05-14T21:27:07.180Z,95856.97
2023-05-14T21:31:19.630Z,95847.81
2023-05-14T21:35:32.228Z,95845.34
2023-05-14T21:39:44.668Z,95833.41
2023-05-14T21:43:57.128Z,95838.28
2023-05-14T21:48:20.600Z,95834.56
2023-05-14T21:52:33.144Z,95822.53
2023-05-14T21:56:45.593Z,95826.09
2023-05-14T22:00:58.625Z,95827.63
2023-05-14T22:05:11.144Z,95836.69
2023-05-14T22:09:27.506Z,95830.00
2023-05-14T22:13:41.737Z,95833.16
2023-05-14T22:17:54.208Z,95828.38
2023-05-14T22:22:06.788Z,95815.19
2023-05-14T22:26:19.283Z,95821.00
2023-05-14T22:30:31.737Z,95823.41
2023-05-14T22:34:44.197Z,95824.72
2023-05-14T22:38:56.649Z,95814.91
2023-05-14T22:43:09.133Z,95816.13
2023-05-14T22:47:21.579Z,95809.47
2023-05-14T22:51:33.985Z,95812.31
2023-05-14T22:55:46.431Z,95811.38
2023-05-14T22:59:58.916Z,95809.56
2023-05-14T23:04:11.863Z,95818.91
2023-05-14T23:08:24.572Z,95813.25
2023-05-14T23:12:37.019Z,95813.81
2023-05-14T23:16:59.506Z,95818.97
2023-05-14T23:21:12.780Z,95808.72
2023-05-14T23:25:25.471Z,95812.13
2023-05-14T23:29:38.108Z,95792.31
2023-05-14T23:33:50.584Z,95782.50
2023-05-14T23:38:03.057Z,95790.03
2023-05-14T23:42:27.410Z,95776.09
2023-05-14T23:46:50.022Z,95778.97
2023-05-14T23:51:02.556Z,95778.28
2023-05-14T23:55:15.263Z,95773.34
2023-05-14T23:59:27.900Z,95757.81
